sensor_id;sensor_type;location;lat;lon;timestamp;P1;durP1;ratioP1;P2;durP2;ratioP2
25581;SDS011;13462;50.764;4.332;2022-09-01T00:00:52;4.82;;;4.32;;
25581;SDS011;13462;50.764;4.332;2022-09-01T00:03:19;9.18;;;5.10;;
25581;SDS011;13462;50.764;4.332;2022-09-01T00:08:23;11.68;;;5.40;;
25581;SDS011;13462;50.764;4.332;2022-09-01T00:10:49;7.80;;;4.78;;
25581;SDS011;13462;50.764;4.332;2022-09-01T00:13:25;13.90;;;5.30;;
25581;SDS011;13462;50.764;4.332;2022-09-01T00:15:51;8.70;;;5.22;;
25581;SDS011;13462;50.764;4.332;2022-09-01T00:18:18;8.23;;;5.05;;
25581;SDS011;13462;50.764;4.332;2022-09-01T00:20:44;8.25;;;4.97;;
25581;SDS011;13462;50.764;4.332;2022-09-01T00:23:17;9.75;;;5.28;;
25581;SDS011;13462;50.764;4.332;2022-09-01T00:28:51;8.35;;;5.30;;
25581;SDS011;13462;50.764;4.332;2022-09-01T00:31:18;7.88;;;5.35;;
25581;SDS011;13462;50.764;4.332;2022-09-01T00:33:45;6.28;;;5.22;;
25581;SDS011;13462;50.764;4.332;2022-09-01T00:36:14;9.82;;;5.70;;
25581;SDS011;13462;50.764;4.332;2022-09-01T00:38:41;12.27;;;5.82;;
25581;SDS011;13462;50.764;4.332;2022-09-01T00:41:10;5.80;;;5.05;;
25581;SDS011;13462;50.764;4.332;2022-09-01T00:46:11;8.18;;;5.10;;
25581;SDS011;13462;50.764;4.332;2022-09-01T00:48:42;9.15;;;5.28;;
25581;SDS011;13462;50.764;4.332;2022-09-01T00:51:08;12.30;;;5.38;;
25581;SDS011;13462;50.764;4.332;2022-09-01T00:53:35;8.10;;;5.22;;
25581;SDS011;13462;50.764;4.332;2022-09-01T00:56:07;8.27;;;5.18;;
25581;SDS011;13462;50.764;4.332;2022-09-01T00:58:37;9.30;;;5.30;;
25581;SDS011;13462;50.764;4.332;2022-09-01T01:01:13;8.70;;;5.20;;
25581;SDS011;13462;50.764;4.332;2022-09-01T01:03:42;8.88;;;4.90;;
25581;SDS011;13462;50.764;4.332;2022-09-01T01:06:11;9.70;;;4.90;;
25581;SDS011;13462;50.764;4.332;2022-09-01T01:08:40;8.75;;;4.90;;
25581;SDS011;13462;50.764;4.332;2022-09-01T01:11:33;13.35;;;5.97;;
25581;SDS011;13462;50.764;4.332;2022-09-01T01:14:00;8.80;;;5.43;;
25581;SDS011;13462;50.764;4.332;2022-09-01T01:16:37;9.35;;;5.15;;
25581;SDS011;13462;50.764;4.332;2022-09-01T01:19:09;6.45;;;5.05;;
25581;SDS011;13462;50.764;4.332;2022-09-01T01:22:01;12.20;;;5.30;;
25581;SDS011;13462;50.764;4.332;2022-09-01T01:27:29;7.65;;;5.18;;
25581;SDS011;13462;50.764;4.332;2022-09-01T01:30:07;8.68;;;5.32;;
25581;SDS011;13462;50.764;4.332;2022-09-01T01:32:37;10.30;;;5.15;;
25581;SDS011;13462;50.764;4.332;2022-09-01T01:35:08;10.75;;;5.88;;
25581;SDS011;13462;50.764;4.332;2022-09-01T01:40:14;8.52;;;4.82;;
25581;SDS011;13462;50.764;4.332;2022-09-01T01:42:50;7.22;;;5.03;;
25581;SDS011;13462;50.764;4.332;2022-09-01T01:45:18;8.68;;;5.63;;
25581;SDS011;13462;50.764;4.332;2022-09-01T01:47:46;8.30;;;5.75;;
25581;SDS011;13462;50.764;4.332;2022-09-01T01:50:26;8.57;;;5.28;;
25581;SDS011;13462;50.764;4.332;2022-09-01T01:53:00;5.93;;;5.18;;
25581;SDS011;13462;50.764;4.332;2022-09-01T01:55:28;9.27;;;5.53;;
25581;SDS011;13462;50.764;4.332;2022-09-01T01:57:56;6.32;;;5.05;;
25581;SDS011;13462;50.764;4.332;2022-09-01T02:00:26;9.85;;;5.05;;
25581;SDS011;13462;50.764;4.332;2022-09-01T02:02:54;8.20;;;5.85;;
25581;SDS011;13462;50.764;4.332;2022-09-01T02:05:25;9.73;;;5.72;;
25581;SDS011;13462;50.764;4.332;2022-09-01T02:07:54;6.15;;;5.22;;
25581;SDS011;13462;50.764;4.332;2022-09-01T02:10:27;12.00;;;6.60;;
25581;SDS011;13462;50.764;4.332;2022-09-01T02:15:28;10.95;;;6.28;;
25581;SDS011;13462;50.764;4.332;2022-09-01T02:17:59;12.55;;;6.68;;
25581;SDS011;13462;50.764;4.332;2022-09-01T02:20:27;9.95;;;6.53;;
25581;SDS011;13462;50.764;4.332;2022-09-01T02:22:56;12.88;;;6.72;;
25581;SDS011;13462;50.764;4.332;2022-09-01T02:25:22;10.95;;;6.45;;
25581;SDS011;13462;50.764;4.332;2022-09-01T02:27:48;10.70;;;7.45;;
25581;SDS011;13462;50.764;4.332;2022-09-01T02:30:17;11.27;;;7.50;;
25581;SDS011;13462;50.764;4.332;2022-09-01T02:32:43;10.52;;;7.25;;
25581;SDS011;13462;50.764;4.332;2022-09-01T02:35:09;11.98;;;7.00;;
25581;SDS011;13462;50.764;4.332;2022-09-01T02:37:36;12.52;;;7.43;;
25581;SDS011;13462;50.764;4.332;2022-09-01T02:40:04;14.45;;;7.82;;
25581;SDS011;13462;50.764;4.332;2022-09-01T02:42:34;12.83;;;7.30;;
25581;SDS011;13462;50.764;4.332;2022-09-01T02:45:07;13.10;;;7.50;;
25581;SDS011;13462;50.764;4.332;2022-09-01T02:47:39;14.82;;;7.95;;
25581;SDS011;13462;50.764;4.332;2022-09-01T02:50:15;11.80;;;7.95;;
25581;SDS011;13462;50.764;4.332;2022-09-01T02:52:43;16.60;;;7.40;;
25581;SDS011;13462;50.764;4.332;2022-09-01T02:55:12;11.85;;;8.07;;
25581;SDS011;13462;50.764;4.332;2022-09-01T02:57:46;14.45;;;7.68;;
25581;SDS011;13462;50.764;4.332;2022-09-01T03:00:14;13.93;;;7.53;;
25581;SDS011;13462;50.764;4.332;2022-09-01T03:02:53;14.77;;;7.20;;
25581;SDS011;13462;50.764;4.332;2022-09-01T03:05:22;15.02;;;8.80;;
25581;SDS011;13462;50.764;4.332;2022-09-01T03:08:07;11.55;;;6.90;;
25581;SDS011;13462;50.764;4.332;2022-09-01T03:10:38;15.35;;;7.18;;
25581;SDS011;13462;50.764;4.332;2022-09-01T03:13:13;13.77;;;7.50;;
25581;SDS011;13462;50.764;4.332;2022-09-01T03:15:42;13.30;;;7.85;;
25581;SDS011;13462;50.764;4.332;2022-09-01T03:18:09;16.65;;;8.57;;
25581;SDS011;13462;50.764;4.332;2022-09-01T03:20:37;12.73;;;7.85;;
25581;SDS011;13462;50.764;4.332;2022-09-01T03:23:08;12.52;;;7.00;;
25581;SDS011;13462;50.764;4.332;2022-09-01T03:25:39;17.13;;;8.30;;
25581;SDS011;13462;50.764;4.332;2022-09-01T03:28:12;12.73;;;6.95;;
25581;SDS011;13462;50.764;4.332;2022-09-01T03:30:43;10.80;;;8.02;;
25581;SDS011;13462;50.764;4.332;2022-09-01T03:35:36;10.52;;;6.63;;
25581;SDS011;13462;50.764;4.332;2022-09-01T03:38:02;15.38;;;7.07;;
25581;SDS011;13462;50.764;4.332;2022-09-01T03:40:30;12.13;;;7.10;;
25581;SDS011;13462;50.764;4.332;2022-09-01T03:42:58;12.07;;;6.43;;
25581;SDS011;13462;50.764;4.332;2022-09-01T03:45:25;13.50;;;7.05;;
25581;SDS011;13462;50.764;4.332;2022-09-01T03:47:52;11.05;;;6.90;;
25581;SDS011;13462;50.764;4.332;2022-09-01T03:50:27;10.50;;;6.35;;
25581;SDS011;13462;50.764;4.332;2022-09-01T03:52:55;15.90;;;7.07;;
25581;SDS011;13462;50.764;4.332;2022-09-01T03:55:24;11.35;;;6.60;;
25581;SDS011;13462;50.764;4.332;2022-09-01T03:58:02;9.20;;;6.30;;
25581;SDS011;13462;50.764;4.332;2022-09-01T04:00:32;11.55;;;6.70;;
25581;SDS011;13462;50.764;4.332;2022-09-01T04:03:08;11.45;;;6.18;;
25581;SDS011;13462;50.764;4.332;2022-09-01T04:05:37;8.13;;;6.70;;
25581;SDS011;13462;50.764;4.332;2022-09-01T04:08:06;10.63;;;6.15;;
25581;SDS011;13462;50.764;4.332;2022-09-01T04:10:36;10.63;;;6.70;;
25581;SDS011;13462;50.764;4.332;2022-09-01T04:13:08;10.02;;;7.03;;
25581;SDS011;13462;50.764;4.332;2022-09-01T04:15:36;8.73;;;5.97;;
25581;SDS011;13462;50.764;4.332;2022-09-01T04:18:02;9.38;;;6.35;;
25581;SDS011;13462;50.764;4.332;2022-09-01T04:20:33;10.98;;;7.22;;
25581;SDS011;13462;50.764;4.332;2022-09-01T04:23:16;8.82;;;5.93;;
25581;SDS011;13462;50.764;4.332;2022-09-01T04:25:47;12.07;;;6.07;;
25581;SDS011;13462;50.764;4.332;2022-09-01T04:28:15;9.18;;;5.88;;
25581;SDS011;13462;50.764;4.332;2022-09-01T04:30:54;11.95;;;5.97;;
25581;SDS011;13462;50.764;4.332;2022-09-01T04:33:26;13.45;;;6.65;;
25581;SDS011;13462;50.764;4.332;2022-09-01T04:36:01;8.88;;;6.10;;
25581;SDS011;13462;50.764;4.332;2022-09-01T04:38:28;11.15;;;6.57;;
25581;SDS011;13462;50.764;4.332;2022-09-01T04:40:54;10.15;;;5.97;;
25581;SDS011;13462;50.764;4.332;2022-09-01T04:43:21;9.07;;;6.72;;
25581;SDS011;13462;50.764;4.332;2022-09-01T04:45:48;8.93;;;5.57;;
25581;SDS011;13462;50.764;4.332;2022-09-01T04:48:18;8.80;;;5.90;;
25581;SDS011;13462;50.764;4.332;2022-09-01T04:50:46;8.15;;;6.22;;
25581;SDS011;13462;50.764;4.332;2022-09-01T04:53:13;10.05;;;6.22;;
25581;SDS011;13462;50.764;4.332;2022-09-01T04:55:40;10.85;;;5.95;;
25581;SDS011;13462;50.764;4.332;2022-09-01T04:58:14;10.73;;;6.07;;
25581;SDS011;13462;50.764;4.332;2022-09-01T05:00:45;11.15;;;6.55;;
25581;SDS011;13462;50.764;4.332;2022-09-01T05:03:13;9.93;;;6.43;;
25581;SDS011;13462;50.764;4.332;2022-09-01T05:05:42;9.23;;;6.80;;
25581;SDS011;13462;50.764;4.332;2022-09-01T05:08:10;11.93;;;6.47;;
25581;SDS011;13462;50.764;4.332;2022-09-01T05:10:42;9.85;;;5.97;;
25581;SDS011;13462;50.764;4.332;2022-09-01T05:13:11;8.15;;;5.70;;
25581;SDS011;13462;50.764;4.332;2022-09-01T05:15:41;9.65;;;6.38;;
25581;SDS011;13462;50.764;4.332;2022-09-01T05:18:14;10.00;;;5.38;;
25581;SDS011;13462;50.764;4.332;2022-09-01T05:20:47;7.30;;;5.75;;
25581;SDS011;13462;50.764;4.332;2022-09-01T05:23:14;9.90;;;6.45;;
25581;SDS011;13462;50.764;4.332;2022-09-01T05:25:43;10.85;;;5.95;;
25581;SDS011;13462;50.764;4.332;2022-09-01T05:28:15;9.68;;;6.07;;
25581;SDS011;13462;50.764;4.332;2022-09-01T05:30:43;10.43;;;6.18;;
25581;SDS011;13462;50.764;4.332;2022-09-01T05:33:10;13.63;;;5.63;;
25581;SDS011;13462;50.764;4.332;2022-09-01T05:35:40;8.57;;;5.80;;
25581;SDS011;13462;50.764;4.332;2022-09-01T05:38:25;10.80;;;5.65;;
25581;SDS011;13462;50.764;4.332;2022-09-01T05:41:01;8.68;;;5.57;;
25581;SDS011;13462;50.764;4.332;2022-09-01T05:43:28;9.70;;;6.18;;
25581;SDS011;13462;50.764;4.332;2022-09-01T05:45:56;8.55;;;6.05;;
25581;SDS011;13462;50.764;4.332;2022-09-01T05:48:22;9.70;;;6.35;;
25581;SDS011;13462;50.764;4.332;2022-09-01T05:50:49;9.25;;;5.88;;
25581;SDS011;13462;50.764;4.332;2022-09-01T05:53:16;8.52;;;6.00;;
25581;SDS011;13462;50.764;4.332;2022-09-01T05:55:43;8.23;;;5.95;;
25581;SDS011;13462;50.764;4.332;2022-09-01T05:58:11;9.80;;;6.65;;
25581;SDS011;13462;50.764;4.332;2022-09-01T06:00:41;8.18;;;5.85;;
25581;SDS011;13462;50.764;4.332;2022-09-01T06:03:10;8.60;;;6.03;;
25581;SDS011;13462;50.764;4.332;2022-09-01T06:05:36;9.23;;;5.40;;
25581;SDS011;13462;50.764;4.332;2022-09-01T06:08:03;9.40;;;5.60;;
25581;SDS011;13462;50.764;4.332;2022-09-01T06:10:32;9.02;;;5.80;;
25581;SDS011;13462;50.764;4.332;2022-09-01T06:13:01;7.20;;;5.10;;
25581;SDS011;13462;50.764;4.332;2022-09-01T06:15:28;10.60;;;5.25;;
25581;SDS011;13462;50.764;4.332;2022-09-01T06:17:55;9.00;;;5.45;;
25581;SDS011;13462;50.764;4.332;2022-09-01T06:20:21;7.43;;;5.22;;
25581;SDS011;13462;50.764;4.332;2022-09-01T06:22:47;6.90;;;5.10;;
25581;SDS011;13462;50.764;4.332;2022-09-01T06:25:14;5.60;;;5.00;;
25581;SDS011;13462;50.764;4.332;2022-09-01T06:27:42;8.35;;;5.00;;
25581;SDS011;13462;50.764;4.332;2022-09-01T06:30:10;5.55;;;4.65;;
25581;SDS011;13462;50.764;4.332;2022-09-01T06:32:43;7.97;;;5.27;;
25581;SDS011;13462;50.764;4.332;2022-09-01T06:35:09;8.63;;;5.22;;
25581;SDS011;13462;50.764;4.332;2022-09-01T06:37:42;9.23;;;5.20;;
25581;SDS011;13462;50.764;4.332;2022-09-01T06:40:10;8.40;;;5.70;;
25581;SDS011;13462;50.764;4.332;2022-09-01T06:42:44;10.88;;;6.03;;
25581;SDS011;13462;50.764;4.332;2022-09-01T06:45:14;8.00;;;6.38;;
25581;SDS011;13462;50.764;4.332;2022-09-01T06:47:41;6.15;;;5.40;;
25581;SDS011;13462;50.764;4.332;2022-09-01T06:50:11;9.55;;;6.45;;
25581;SDS011;13462;50.764;4.332;2022-09-01T06:52:42;11.48;;;6.40;;
25581;SDS011;13462;50.764;4.332;2022-09-01T06:55:12;7.65;;;6.03;;
25581;SDS011;13462;50.764;4.332;2022-09-01T06:57:39;12.40;;;6.13;;
25581;SDS011;13462;50.764;4.332;2022-09-01T07:00:10;11.43;;;6.38;;
25581;SDS011;13462;50.764;4.332;2022-09-01T07:03:06;10.40;;;6.28;;
25581;SDS011;13462;50.764;4.332;2022-09-01T07:05:36;9.70;;;5.47;;
25581;SDS011;13462;50.764;4.332;2022-09-01T07:08:04;9.70;;;5.93;;
25581;SDS011;13462;50.764;4.332;2022-09-01T07:10:38;8.60;;;5.82;;
25581;SDS011;13462;50.764;4.332;2022-09-01T07:13:09;7.43;;;5.55;;
25581;SDS011;13462;50.764;4.332;2022-09-01T07:15:44;6.95;;;5.85;;
25581;SDS011;13462;50.764;4.332;2022-09-01T07:18:14;7.78;;;6.18;;
25581;SDS011;13462;50.764;4.332;2022-09-01T07:20:41;6.75;;;5.30;;
25581;SDS011;13462;50.764;4.332;2022-09-01T07:23:08;7.00;;;5.93;;
25581;SDS011;13462;50.764;4.332;2022-09-01T07:25:39;8.43;;;5.60;;
25581;SDS011;13462;50.764;4.332;2022-09-01T07:28:07;10.20;;;6.05;;
25581;SDS011;13462;50.764;4.332;2022-09-01T07:30:38;13.93;;;6.03;;
25581;SDS011;13462;50.764;4.332;2022-09-01T07:33:10;9.32;;;5.57;;
25581;SDS011;13462;50.764;4.332;2022-09-01T07:35:38;10.75;;;6.15;;
25581;SDS011;13462;50.764;4.332;2022-09-01T07:38:05;5.95;;;5.10;;
25581;SDS011;13462;50.764;4.332;2022-09-01T07:40:34;8.88;;;5.28;;
25581;SDS011;13462;50.764;4.332;2022-09-01T07:43:06;7.85;;;5.47;;
25581;SDS011;13462;50.764;4.332;2022-09-01T07:45:47;5.03;;;4.60;;
25581;SDS011;13462;50.764;4.332;2022-09-01T07:48:18;5.63;;;5.10;;
25581;SDS011;13462;50.764;4.332;2022-09-01T07:50:48;7.68;;;4.80;;
25581;SDS011;13462;50.764;4.332;2022-09-01T07:53:18;6.97;;;4.70;;
25581;SDS011;13462;50.764;4.332;2022-09-01T07:55:46;5.28;;;4.15;;
25581;SDS011;13462;50.764;4.332;2022-09-01T07:58:18;4.90;;;4.40;;
25581;SDS011;13462;50.764;4.332;2022-09-01T08:00:46;5.85;;;5.18;;
25581;SDS011;13462;50.764;4.332;2022-09-01T08:03:14;8.05;;;4.63;;
25581;SDS011;13462;50.764;4.332;2022-09-01T08:05:41;4.43;;;4.00;;
25581;SDS011;13462;50.764;4.332;2022-09-01T08:08:07;4.93;;;4.32;;
25581;SDS011;13462;50.764;4.332;2022-09-01T08:10:33;5.43;;;4.57;;
25581;SDS011;13462;50.764;4.332;2022-09-01T08:13:03;7.97;;;4.60;;
25581;SDS011;13462;50.764;4.332;2022-09-01T08:15:36;4.47;;;4.07;;
25581;SDS011;13462;50.764;4.332;2022-09-01T08:18:03;5.03;;;4.50;;
25581;SDS011;13462;50.764;4.332;2022-09-01T08:20:29;5.32;;;4.07;;
25581;SDS011;13462;50.764;4.332;2022-09-01T08:22:59;4.90;;;4.30;;
25581;SDS011;13462;50.764;4.332;2022-09-01T08:25:25;4.53;;;4.13;;
25581;SDS011;13462;50.764;4.332;2022-09-01T08:27:51;5.50;;;4.32;;
25581;SDS011;13462;50.764;4.332;2022-09-01T08:30:17;5.70;;;3.65;;
25581;SDS011;13462;50.764;4.332;2022-09-01T08:32:42;4.90;;;4.30;;
25581;SDS011;13462;50.764;4.332;2022-09-01T08:35:09;6.55;;;4.20;;
25581;SDS011;13462;50.764;4.332;2022-09-01T08:37:36;5.72;;;3.85;;
25581;SDS011;13462;50.764;4.332;2022-09-01T08:40:06;5.43;;;3.97;;
25581;SDS011;13462;50.764;4.332;2022-09-01T08:42:43;4.00;;;3.60;;
25581;SDS011;13462;50.764;4.332;2022-09-01T08:45:53;5.10;;;3.45;;
25581;SDS011;13462;50.764;4.332;2022-09-01T08:48:20;4.45;;;3.70;;
25581;SDS011;13462;50.764;4.332;2022-09-01T08:57:06;4.32;;;3.92;;
25581;SDS011;13462;50.764;4.332;2022-09-01T08:59:35;5.07;;;3.97;;
25581;SDS011;13462;50.764;4.332;2022-09-01T09:05:06;9.15;;;3.75;;
25581;SDS011;13462;50.764;4.332;2022-09-01T09:10:59;5.30;;;3.50;;
25581;SDS011;13462;50.764;4.332;2022-09-01T09:13:34;3.65;;;2.92;;
25581;SDS011;13462;50.764;4.332;2022-09-01T09:16:09;4.03;;;3.50;;
25581;SDS011;13462;50.764;4.332;2022-09-01T09:18:46;4.72;;;3.88;;
25581;SDS011;13462;50.764;4.332;2022-09-01T09:23:57;9.30;;;3.47;;
25581;SDS011;13462;50.764;4.332;2022-09-01T09:26:31;3.67;;;2.72;;
25581;SDS011;13462;50.764;4.332;2022-09-01T09:28:57;3.85;;;3.53;;
25581;SDS011;13462;50.764;4.332;2022-09-01T09:34:01;6.40;;;3.40;;
25581;SDS011;13462;50.764;4.332;2022-09-01T09:36:31;3.88;;;3.17;;
25581;SDS011;13462;50.764;4.332;2022-09-01T09:39:07;4.47;;;2.78;;
25581;SDS011;13462;50.764;4.332;2022-09-01T09:41:35;5.15;;;3.10;;
25581;SDS011;13462;50.764;4.332;2022-09-01T09:44:14;4.38;;;3.00;;
25581;SDS011;13462;50.764;4.332;2022-09-01T09:46:57;3.08;;;2.67;;
25581;SDS011;13462;50.764;4.332;2022-09-01T09:49:25;4.93;;;3.22;;
25581;SDS011;13462;50.764;4.332;2022-09-01T09:51:52;5.28;;;3.45;;
25581;SDS011;13462;50.764;4.332;2022-09-01T09:54:24;4.57;;;3.22;;
25581;SDS011;13462;50.764;4.332;2022-09-01T09:59:37;3.63;;;2.85;;
25581;SDS011;13462;50.764;4.332;2022-09-01T10:02:36;3.08;;;2.72;;
25581;SDS011;13462;50.764;4.332;2022-09-01T10:08:11;5.20;;;3.20;;
25581;SDS011;13462;50.764;4.332;2022-09-01T10:11:08;7.10;;;3.17;;
25581;SDS011;13462;50.764;4.332;2022-09-01T10:13:35;3.63;;;2.70;;
25581;SDS011;13462;50.764;4.332;2022-09-01T10:16:02;3.92;;;2.60;;
25581;SDS011;13462;50.764;4.332;2022-09-01T10:18:34;2.75;;;2.55;;
25581;SDS011;13462;50.764;4.332;2022-09-01T10:21:07;3.33;;;2.30;;
25581;SDS011;13462;50.764;4.332;2022-09-01T10:23:38;4.68;;;2.53;;
25581;SDS011;13462;50.764;4.332;2022-09-01T10:26:10;4.00;;;2.45;;
25581;SDS011;13462;50.764;4.332;2022-09-01T10:28:45;4.30;;;2.65;;
25581;SDS011;13462;50.764;4.332;2022-09-01T10:31:21;5.50;;;2.47;;
25581;SDS011;13462;50.764;4.332;2022-09-01T10:33:47;5.55;;;2.30;;
25581;SDS011;13462;50.764;4.332;2022-09-01T10:36:15;4.38;;;2.03;;
25581;SDS011;13462;50.764;4.332;2022-09-01T10:38:41;4.18;;;2.40;;
25581;SDS011;13462;50.764;4.332;2022-09-01T10:41:07;3.58;;;2.10;;
25581;SDS011;13462;50.764;4.332;2022-09-01T10:43:45;7.55;;;3.08;;
25581;SDS011;13462;50.764;4.332;2022-09-01T10:48:47;10.50;;;2.50;;
25581;SDS011;13462;50.764;4.332;2022-09-01T10:53:49;3.20;;;2.30;;
25581;SDS011;13462;50.764;4.332;2022-09-01T10:56:39;5.38;;;2.20;;
25581;SDS011;13462;50.764;4.332;2022-09-01T11:12:38;3.75;;;2.55;;
25581;SDS011;13462;50.764;4.332;2022-09-01T11:20:28;4.05;;;2.30;;
25581;SDS011;13462;50.764;4.332;2022-09-01T11:23:02;3.40;;;2.28;;
25581;SDS011;13462;50.764;4.332;2022-09-01T11:25:43;2.97;;;1.92;;
25581;SDS011;13462;50.764;4.332;2022-09-01T11:39:08;3.50;;;2.10;;
25581;SDS011;13462;50.764;4.332;2022-09-01T11:44:57;3.28;;;2.00;;
25581;SDS011;13462;50.764;4.332;2022-09-01T11:47:35;2.38;;;2.15;;
25581;SDS011;13462;50.764;4.332;2022-09-01T11:53:04;5.57;;;2.60;;
25581;SDS011;13462;50.764;4.332;2022-09-01T11:58:05;2.50;;;2.30;;
25581;SDS011;13462;50.764;4.332;2022-09-01T12:00:36;3.13;;;2.38;;
25581;SDS011;13462;50.764;4.332;2022-09-01T12:03:04;3.05;;;2.28;;
25581;SDS011;13462;50.764;4.332;2022-09-01T12:08:11;7.82;;;2.70;;
25581;SDS011;13462;50.764;4.332;2022-09-01T12:10:42;3.42;;;2.50;;
25581;SDS011;13462;50.764;4.332;2022-09-01T12:13:20;2.90;;;2.03;;
25581;SDS011;13462;50.764;4.332;2022-09-01T12:15:51;3.72;;;1.90;;
25581;SDS011;13462;50.764;4.332;2022-09-01T12:18:20;2.45;;;2.25;;
25581;SDS011;13462;50.764;4.332;2022-09-01T12:20:51;3.70;;;2.47;;
25581;SDS011;13462;50.764;4.332;2022-09-01T12:23:28;2.50;;;2.20;;
25581;SDS011;13462;50.764;4.332;2022-09-01T12:26:04;4.25;;;2.53;;
25581;SDS011;13462;50.764;4.332;2022-09-01T12:28:32;2.38;;;2.17;;
25581;SDS011;13462;50.764;4.332;2022-09-01T12:31:01;3.63;;;2.10;;
25581;SDS011;13462;50.764;4.332;2022-09-01T12:33:29;2.85;;;2.10;;
25581;SDS011;13462;50.764;4.332;2022-09-01T12:36:14;1.92;;;1.83;;
25581;SDS011;13462;50.764;4.332;2022-09-01T12:39:17;4.03;;;2.22;;
25581;SDS011;13462;50.764;4.332;2022-09-01T12:41:41;3.60;;;2.55;;
25581;SDS011;13462;50.764;4.332;2022-09-01T12:46:58;2.35;;;2.15;;
25581;SDS011;13462;50.764;4.332;2022-09-01T12:49:41;4.07;;;2.45;;
25581;SDS011;13462;50.764;4.332;2022-09-01T12:54:51;2.92;;;2.10;;
25581;SDS011;13462;50.764;4.332;2022-09-01T12:57:32;4.75;;;2.30;;
25581;SDS011;13462;50.764;4.332;2022-09-01T13:02:35;3.42;;;2.10;;
25581;SDS011;13462;50.764;4.332;2022-09-01T13:07:57;2.38;;;2.17;;
25581;SDS011;13462;50.764;4.332;2022-09-01T13:10:35;5.45;;;2.33;;
25581;SDS011;13462;50.764;4.332;2022-09-01T13:13:05;6.60;;;2.30;;
25581;SDS011;13462;50.764;4.332;2022-09-01T13:15:32;4.20;;;2.63;;
25581;SDS011;13462;50.764;4.332;2022-09-01T13:17:58;5.50;;;2.20;;
25581;SDS011;13462;50.764;4.332;2022-09-01T13:20:24;3.97;;;2.25;;
25581;SDS011;13462;50.764;4.332;2022-09-01T13:22:50;3.63;;;2.58;;
25581;SDS011;13462;50.764;4.332;2022-09-01T13:25:18;2.58;;;2.38;;
25581;SDS011;13462;50.764;4.332;2022-09-01T13:27:44;3.45;;;2.40;;
25581;SDS011;13462;50.764;4.332;2022-09-01T13:30:15;4.55;;;2.10;;
25581;SDS011;13462;50.764;4.332;2022-09-01T13:32:44;4.25;;;2.20;;
25581;SDS011;13462;50.764;4.332;2022-09-01T13:35:15;5.30;;;2.90;;
25581;SDS011;13462;50.764;4.332;2022-09-01T13:37:46;4.40;;;2.60;;
25581;SDS011;13462;50.764;4.332;2022-09-01T13:40:12;4.03;;;2.35;;
25581;SDS011;13462;50.764;4.332;2022-09-01T13:42:42;3.35;;;2.70;;
25581;SDS011;13462;50.764;4.332;2022-09-01T13:45:09;3.42;;;2.45;;
25581;SDS011;13462;50.764;4.332;2022-09-01T13:47:40;6.22;;;2.50;;
25581;SDS011;13462;50.764;4.332;2022-09-01T13:50:07;2.50;;;2.30;;
25581;SDS011;13462;50.764;4.332;2022-09-01T13:52:35;5.63;;;2.72;;
25581;SDS011;13462;50.764;4.332;2022-09-01T13:55:02;2.60;;;2.40;;
25581;SDS011;13462;50.764;4.332;2022-09-01T13:57:29;2.97;;;2.65;;
25581;SDS011;13462;50.764;4.332;2022-09-01T13:59:55;3.67;;;2.25;;
25581;SDS011;13462;50.764;4.332;2022-09-01T14:02:22;4.18;;;2.63;;
25581;SDS011;13462;50.764;4.332;2022-09-01T14:04:50;3.13;;;2.53;;
25581;SDS011;13462;50.764;4.332;2022-09-01T14:07:15;2.78;;;2.35;;
25581;SDS011;13462;50.764;4.332;2022-09-01T14:09:43;4.32;;;2.33;;
25581;SDS011;13462;50.764;4.332;2022-09-01T14:12:09;3.45;;;2.63;;
25581;SDS011;13462;50.764;4.332;2022-09-01T14:14:35;5.22;;;2.80;;
25581;SDS011;13462;50.764;4.332;2022-09-01T14:17:01;4.13;;;2.42;;
25581;SDS011;13462;50.764;4.332;2022-09-01T14:19:27;4.25;;;2.38;;
25581;SDS011;13462;50.764;4.332;2022-09-01T14:21:56;2.60;;;2.40;;
25581;SDS011;13462;50.764;4.332;2022-09-01T14:24:22;3.25;;;2.67;;
25581;SDS011;13462;50.764;4.332;2022-09-01T14:26:55;4.47;;;2.42;;
25581;SDS011;13462;50.764;4.332;2022-09-01T14:29:21;3.85;;;2.47;;
25581;SDS011;13462;50.764;4.332;2022-09-01T14:31:47;3.40;;;2.65;;
25581;SDS011;13462;50.764;4.332;2022-09-01T14:34:14;5.78;;;2.83;;
25581;SDS011;13462;50.764;4.332;2022-09-01T14:36:41;3.88;;;2.50;;
25581;SDS011;13462;50.764;4.332;2022-09-01T14:39:08;2.92;;;2.28;;
25581;SDS011;13462;50.764;4.332;2022-09-01T14:41:33;3.90;;;2.25;;
25581;SDS011;13462;50.764;4.332;2022-09-01T14:43:59;2.85;;;2.22;;
25581;SDS011;13462;50.764;4.332;2022-09-01T14:46:28;5.00;;;2.60;;
25581;SDS011;13462;50.764;4.332;2022-09-01T14:48:55;4.97;;;2.60;;
25581;SDS011;13462;50.764;4.332;2022-09-01T14:51:22;7.32;;;2.60;;
25581;SDS011;13462;50.764;4.332;2022-09-01T14:53:53;5.15;;;2.55;;
25581;SDS011;13462;50.764;4.332;2022-09-01T14:56:20;4.82;;;2.50;;
25581;SDS011;13462;50.764;4.332;2022-09-01T14:58:46;4.28;;;2.45;;
25581;SDS011;13462;50.764;4.332;2022-09-01T15:01:14;6.38;;;2.50;;
25581;SDS011;13462;50.764;4.332;2022-09-01T15:03:42;3.58;;;2.30;;
25581;SDS011;13462;50.764;4.332;2022-09-01T15:06:13;4.68;;;2.50;;
25581;SDS011;13462;50.764;4.332;2022-09-01T15:08:40;2.80;;;2.60;;
25581;SDS011;13462;50.764;4.332;2022-09-01T15:11:08;4.05;;;2.20;;
25581;SDS011;13462;50.764;4.332;2022-09-01T15:13:35;2.85;;;2.35;;
25581;SDS011;13462;50.764;4.332;2022-09-01T15:16:11;2.70;;;2.22;;
25581;SDS011;13462;50.764;4.332;2022-09-01T15:18:42;2.60;;;2.20;;
25581;SDS011;13462;50.764;4.332;2022-09-01T15:21:07;2.40;;;2.05;;
25581;SDS011;13462;50.764;4.332;2022-09-01T15:23:47;4.40;;;2.22;;
25581;SDS011;13462;50.764;4.332;2022-09-01T15:26:15;3.03;;;2.40;;
25581;SDS011;13462;50.764;4.332;2022-09-01T15:28:52;3.80;;;1.75;;
25581;SDS011;13462;50.764;4.332;2022-09-01T15:31:18;2.78;;;2.42;;
25581;SDS011;13462;50.764;4.332;2022-09-01T15:33:59;2.60;;;2.22;;
25581;SDS011;13462;50.764;4.332;2022-09-01T15:36:27;4.72;;;2.63;;
25581;SDS011;13462;50.764;4.332;2022-09-01T15:38:55;4.18;;;2.10;;
25581;SDS011;13462;50.764;4.332;2022-09-01T15:41:23;4.03;;;2.33;;
25581;SDS011;13462;50.764;4.332;2022-09-01T15:43:51;5.10;;;2.60;;
25581;SDS011;13462;50.764;4.332;2022-09-01T15:46:17;5.82;;;2.40;;
25581;SDS011;13462;50.764;4.332;2022-09-01T15:48:43;4.18;;;2.17;;
25581;SDS011;13462;50.764;4.332;2022-09-01T15:53:50;4.85;;;2.10;;
25581;SDS011;13462;50.764;4.332;2022-09-01T15:56:18;5.10;;;2.33;;
25581;SDS011;13462;50.764;4.332;2022-09-01T15:58:47;3.60;;;2.80;;
25581;SDS011;13462;50.764;4.332;2022-09-01T16:01:14;2.47;;;2.25;;
25581;SDS011;13462;50.764;4.332;2022-09-01T16:03:42;3.72;;;2.13;;
25581;SDS011;13462;50.764;4.332;2022-09-01T16:06:08;2.72;;;2.03;;
25581;SDS011;13462;50.764;4.332;2022-09-01T16:08:34;2.17;;;1.98;;
25581;SDS011;13462;50.764;4.332;2022-09-01T16:11:00;4.07;;;2.20;;
25581;SDS011;13462;50.764;4.332;2022-09-01T16:13:34;2.72;;;2.10;;
25581;SDS011;13462;50.764;4.332;2022-09-01T16:19:06;4.32;;;2.10;;
25581;SDS011;13462;50.764;4.332;2022-09-01T16:22:36;5.68;;;2.60;;
25581;SDS011;13462;50.764;4.332;2022-09-01T16:25:12;3.08;;;1.92;;
25581;SDS011;13462;50.764;4.332;2022-09-01T16:27:53;5.28;;;2.10;;
25581;SDS011;13462;50.764;4.332;2022-09-01T16:30:23;4.03;;;2.15;;
25581;SDS011;13462;50.764;4.332;2022-09-01T16:32:52;3.50;;;2.03;;
25581;SDS011;13462;50.764;4.332;2022-09-01T16:35:34;3.17;;;1.90;;
25581;SDS011;13462;50.764;4.332;2022-09-01T16:38:52;4.03;;;2.33;;
25581;SDS011;13462;50.764;4.332;2022-09-01T16:41:13;3.20;;;1.80;;
25581;SDS011;13462;50.764;4.332;2022-09-01T16:44:10;2.55;;;1.83;;
25581;SDS011;13462;50.764;4.332;2022-09-01T16:46:49;7.03;;;2.30;;
25581;SDS011;13462;50.764;4.332;2022-09-01T16:49:38;3.45;;;2.15;;
25581;SDS011;13462;50.764;4.332;2022-09-01T16:52:21;3.05;;;1.83;;